createdAt,value
2018-07-22T06:09:58.840Z,98470.39
2018-07-22T06:12:26.951Z,98473.63
2018-07-22T06:14:55.064Z,98476.23
2018-07-22T06:17:23.183Z,98474.95
2018-07-22T06:19:51.300Z,98480.89
2018-07-22T06:22:19.386Z,98482.97
2018-07-22T06:24:47.488Z,98479.30
2018-07-22T06:27:15.604Z,98480.16
2018-07-22T06:29:43.696Z,98482.17
2018-07-22T06:32:12.117Z,98482.64
2018-07-22T06:34:40.408Z,98486.15
2018-07-22T06:37:08.555Z,98478.44
2018-07-22T06:39:36.664Z,98482.10
2018-07-22T06:42:04.777Z,98479.20
2018-07-22T06:44:32.921Z,98484.87
2018-07-22T06:47:01.027Z,98480.66
2018-07-22T06:49:29.114Z,98482.88
2018-07-22T06:51:57.216Z,98494.51
2018-07-22T06:54:25.338Z,98495.58
2018-07-22T06:56:53.436Z,98491.91
2018-07-22T06:59:22.739Z,98494.82
2018-07-22T07:01:50.839Z,98503.08
2018-07-22T07:04:18.933Z,98498.20
2018-07-22T07:06:47.043Z,98501.73
2018-07-22T07:09:15.180Z,98502.53
2018-07-22T07:11:43.293Z,98495.99
2018-07-22T07:14:11.650Z,98496.95
2018-07-22T07:16:39.762Z,98501.83
2018-07-22T07:19:07.859Z,98499.14
2018-07-22T07:21:35.958Z,98496.83
2018-07-22T07:24:04.090Z,98512.00
2018-07-22T07:26:32.196Z,98502.93
2018-07-22T07:29:00.313Z,98506.80
2018-07-22T07:31:28.411Z,98500.52
2018-07-22T07:33:56.541Z,98499.95
2018-07-22T07:36:24.932Z,98507.18
2018-07-22T07:38:53.936Z,98502.61
2018-07-22T07:41:22.048Z,98499.47
2018-07-22T07:43:50.164Z,98504.47
2018-07-22T07:46:18.262Z,98504.17
2018-07-22T07:48:46.380Z,98506.23
2018-07-22T07:51:14.481Z,98493.66
2018-07-22T07:53:42.599Z,98493.15
2018-07-22T07:56:10.700Z,98498.52
2018-07-22T07:58:38.806Z,98502.73
2018-07-22T08:01:06.903Z,98499.84
2018-07-22T08:03:34.998Z,98505.19
2018-07-22T08:06:03.105Z,98501.20
2018-07-22T08:08:31.501Z,98504.89
2018-07-22T08:10:59.607Z,98504.26
2018-07-22T08:13:27.698Z,98511.08
2018-07-22T08:15:56.436Z,98508.63
2018-07-22T08:18:25.342Z,98511.20
2018-07-22T08:20:53.684Z,98512.41
2018-07-22T08:23:21.819Z,98516.23
2018-07-22T08:25:50.004Z,98511.91
2018-07-22T08:28:28.023Z,98504.91
2018-07-22T08:30:56.133Z,98509.03
2018-07-22T08:33:24.220Z,98512.03
2018-07-22T08:35:52.312Z,98514.08
2018-07-22T08:38:20.422Z,98513.41
2018-07-22T08:40:48.519Z,98515.08
2018-07-22T08:43:16.732Z,98518.80
2018-07-22T08:45:44.831Z,98510.65
2018-07-22T08:48:12.945Z,98521.86
2018-07-22T08:50:41.035Z,98519.98
2018-07-22T08:53:09.178Z,98524.69
2018-07-22T08:55:37.237Z,98513.54
2018-07-22T08:58:05.876Z,98521.35
2018-07-22T09:00:34.214Z,98517.91
2018-07-22T09:03:02.343Z,98521.28
2018-07-22T09:05:30.443Z,98523.34
2018-07-22T09:07:58.756Z,98522.52
2018-07-22T09:10:27.460Z,98518.91
2018-07-22T09:12:55.571Z,98519.42
2018-07-22T09:15:23.678Z,98519.28
2018-07-22T09:17:51.805Z,98521.89
2018-07-22T09:20:20.216Z,98518.73
2018-07-22T09:22:48.291Z,98516.67
2018-07-22T09:25:16.400Z,98519.19
2018-07-22T09:27:44.523Z,98520.48
2018-07-22T09:30:12.632Z,98516.83
2018-07-22T09:32:41.297Z,98518.41
2018-07-22T09:35:09.403Z,98521.14
2018-07-22T09:37:37.509Z,98516.56
2018-07-22T09:40:05.647Z,98515.37
2018-07-22T09:42:33.751Z,98513.40
2018-07-22T09:45:01.864Z,98518.89
2018-07-22T09:47:29.965Z,98518.38
2018-07-22T09:49:58.415Z,98519.84
2018-07-22T09:52:26.521Z,98521.19
2018-07-22T09:54:54.619Z,98516.11
2018-07-22T09:57:22.715Z,98509.55
2018-07-22T09:59:50.838Z,98522.52
2018-07-22T10:02:18.983Z,98516.94
2018-07-22T10:04:47.143Z,98519.31
2018-07-22T10:07:15.196Z,98518.55
2018-07-22T10:09:43.376Z,98523.50
2018-07-22T10:12:11.456Z,98518.44
2018-07-22T10:14:39.637Z,98519.73
2018-07-22T10:17:07.703Z,98520.17
2018-07-22T10:19:35.785Z,98522.48
2018-07-22T10:22:03.953Z,98512.62
2018-07-22T10:24:32.184Z,98515.23
2018-07-22T10:27:00.871Z,98506.05
2018-07-22T10:29:28.963Z,98507.21
2018-07-22T10:31:57.079Z,98511.11
2018-07-22T10:34:25.183Z,98510.08
2018-07-22T10:36:53.299Z,98503.06
2018-07-22T10:39:21.412Z,98503.12
2018-07-22T10:41:49.516Z,98497.94
2018-07-22T10:44:17.654Z,98504.66
2018-07-22T10:46:45.759Z,98499.13
2018-07-22T10:49:13.864Z,98500.97
2018-07-22T10:51:42.038Z,98511.39
2018-07-22T10:54:10.478Z,98507.81
2018-07-22T10:56:38.579Z,98505.01
2018-07-22T10:59:06.692Z,98503.17
2018-07-22T11:01:34.808Z,98503.66
2018-07-22T11:04:02.933Z,98516.28
2018-07-22T11:06:31.032Z,98504.34
2018-07-22T11:08:59.140Z,98509.11
2018-07-22T11:11:27.255Z,98505.66
2018-07-22T11:13:55.335Z,98506.47
2018-07-22T11:16:23.435Z,98496.48
2018-07-22T11:18:51.527Z,98505.10
2018-07-22T11:21:20.100Z,98495.80
2018-07-22T11:23:48.788Z,98503.81
2018-07-22T11:26:16.949Z,98497.58
2018-07-22T11:28:45.077Z,98502.62
2018-07-22T11:31:13.143Z,98497.52
2018-07-22T11:33:41.259Z,98502.78
2018-07-22T11:36:09.708Z,98503.73
2018-07-22T11:38:37.779Z,98497.17
2018-07-22T11:41:05.951Z,98500.36
2018-07-22T11:43:34.494Z,98490.44
2018-07-22T11:46:02.581Z,98493.24
2018-07-22T11:48:30.693Z,98492.16
2018-07-22T11:50:58.812Z,98497.14
2018-07-22T11:53:26.908Z,98485.77
2018-07-22T11:55:55.118Z,98487.80
2018-07-22T11:58:23.177Z,98482.98
2018-07-22T12:00:52.087Z,98482.14
2018-07-22T12:03:20.602Z,98478.16
2018-07-22T12:05:49.097Z,98482.43
2018-07-22T12:08:17.262Z,98479.56
2018-07-22T12:10:45.980Z,98472.77
2018-07-22T12:13:14.148Z,98464.38
2018-07-22T12:15:42.228Z,98459.00
2018-07-22T12:18:10.338Z,98456.22
2018-07-22T12:20:38.437Z,98462.94
2018-07-22T12:23:06.583Z,98459.20
2018-07-22T12:25:34.725Z,98465.70
2018-07-22T12:28:02.894Z,98460.02
2018-07-22T12:30:30.932Z,98454.11
2018-07-22T12:32:59.060Z,98459.45
2018-07-22T12:35:27.176Z,98450.86
2018-07-22T12:37:55.394Z,98454.09
2018-07-22T12:40:23.547Z,98463.40
2018-07-22T12:42:51.640Z,98459.52
2018-07-22T12:45:19.743Z,98459.24
2018-07-22T12:47:47.860Z,98456.28
2018-07-22T12:50:15.966Z,98460.82
2018-07-22T12:52:44.375Z,98463.45
2018-07-22T12:55:12.560Z,98470.16
2018-07-22T12:57:40.735Z,98465.20
2018-07-22T13:00:08.842Z,98463.68
2018-07-22T13:02:37.228Z,98469.72
2018-07-22T13:05:05.809Z,98470.45
2018-07-22T13:07:33.891Z,98472.53
2018-07-22T13:10:02.043Z,98494.52
2018-07-22T13:12:30.122Z,98503.98
2018-07-22T13:14:58.279Z,98523.04
2018-07-22T14:42:49.644Z,98531.44
2018-07-22T14:45:18.122Z,98530.41
2018-07-22T14:47:46.236Z,98536.41
2018-07-22T14:50:14.345Z,98530.97
2018-07-22T14:52:42.508Z,98529.75
2018-07-22T14:55:10.655Z,98518.66
2018-07-22T14:57:38.816Z,98520.53
2018-07-22T15:00:07.501Z,98520.91
2018-07-22T15:02:35.613Z,98517.83
2018-07-22T15:05:03.780Z,98514.75
2018-07-22T15:07:32.134Z,98510.41
2018-07-22T15:10:00.239Z,98505.77
2018-07-22T15:12:28.352Z,98507.51
2018-07-22T15:14:56.467Z,98512.19
2018-07-22T15:17:24.576Z,98513.53
2018-07-22T15:19:52.708Z,98514.55
2018-07-22T15:22:21.655Z,98511.98
2018-07-22T15:24:49.774Z,98516.83
2018-07-22T15:27:18.077Z,98515.47
2018-07-22T15:29:46.207Z,98518.38
2018-07-22T15:32:14.336Z,98514.92
2018-07-22T15:34:42.705Z,98523.83
2018-07-22T15:37:12.081Z,98527.97
2018-07-22T15:39:40.167Z,98528.17
2018-07-22T15:42:08.295Z,98534.17
2018-07-22T15:44:36.427Z,98532.81
2018-07-22T15:47:04.577Z,98530.14
2018-07-22T15:49:32.694Z,98522.89
2018-07-22T15:52:00.806Z,98527.44
2018-07-22T15:54:28.924Z,98518.81
2018-07-22T15:56:57.067Z,98519.08
2018-07-22T15:59:25.185Z,98523.53
2018-07-22T16:01:53.304Z,98524.50
2018-07-22T16:04:21.662Z,98532.42
2018-07-22T16:06:49.792Z,98534.80
2018-07-22T16:09:18.048Z,98543.15
2018-07-22T16:11:46.163Z,98540.81
2018-07-22T16:14:14.319Z,98541.00
2018-07-22T16:16:42.821Z,98541.91
2018-07-22T16:19:10.928Z,98543.90
2018-07-22T16:21:39.072Z,98539.73
2018-07-22T16:24:07.185Z,98535.66
2018-07-22T16:26:35.291Z,98546.91
2018-07-22T16:29:03.404Z,98551.55
2018-07-22T16:31:31.517Z,98564.48
2018-07-22T16:33:59.601Z,98577.26
2018-07-22T16:42:34.129Z,98571.57
2018-07-22T16:45:02.351Z,98565.52
2018-07-22T16:47:30.756Z,98563.84
2018-07-22T16:49:58.877Z,98563.50
2018-07-22T16:52:27.776Z,98556.19
2018-07-22T16:54:55.862Z,98569.36
2018-07-22T16:57:24.991Z,98562.69
2018-07-22T16:59:53.089Z,98561.65
2018-07-22T17:02:21.191Z,98559.47
2018-07-22T17:04:49.538Z,98563.11
2018-07-22T17:07:18.234Z,98568.07
2018-07-22T17:09:46.311Z,98565.80
2018-07-22T17:12:14.752Z,98558.39
2018-07-22T17:14:42.915Z,98559.08
2018-07-22T17:17:13.038Z,98558.15
2018-07-22T17:19:41.274Z,98563.47
2018-07-22T17:22:09.443Z,98556.17
2018-07-22T17:24:38.600Z,98560.55
2018-07-22T17:27:06.677Z,98559.98
2018-07-22T17:29:34.800Z,98561.11
2018-07-22T17:34:55.679Z,98551.79
2018-07-22T17:37:27.527Z,98549.51
2018-07-22T17:39:58.767Z,98555.31
2018-07-22T17:42:27.875Z,98564.73
2018-07-22T17:44:56.973Z,98558.05
2018-07-22T17:47:25.454Z,98567.23
2018-07-22T17:49:53.884Z,98573.96
2018-07-22T17:52:22.004Z,98577.52
2018-07-22T17:54:50.156Z,98575.16
2018-07-22T17:57:18.328Z,98582.25
2018-07-22T17:59:46.734Z,98581.33
2018-07-22T18:05:18.998Z,98581.64
2018-07-22T18:07:47.170Z,98581.10
2018-07-22T18:10:15.304Z,98579.84
2018-07-22T18:12:43.406Z,98582.44
2018-07-22T18:15:11.532Z,98592.34
2018-07-22T18:17:39.921Z,98591.13
2018-07-22T18:20:08.067Z,98596.75
2018-07-22T18:22:36.171Z,98592.75
2018-07-22T18:25:04.281Z,98596.52
2018-07-22T18:27:33.361Z,98593.52
2018-07-22T18:30:01.487Z,98587.70
2018-07-22T18:32:29.580Z,98594.95
2018-07-22T18:34:57.683Z,98594.42
2018-07-22T18:37:25.831Z,98596.55
2018-07-22T18:39:53.879Z,98599.59
2018-07-22T18:42:21.991Z,98602.72
2018-07-22T18:44:50.068Z,98603.80
2018-07-22T18:47:18.260Z,98603.49
2018-07-22T18:49:47.114Z,98603.83
2018-07-22T18:52:15.164Z,98596.49
2018-07-22T18:54:43.280Z,98605.17
2018-07-22T18:57:11.913Z,98604.18
2018-07-22T18:59:40.031Z,98599.09
2018-07-22T19:02:08.135Z,98595.56
2018-07-22T19:04:36.249Z,98599.15
2018-07-22T19:07:04.364Z,98601.78
2018-07-22T19:09:32.467Z,98600.41
2018-07-22T19:12:00.561Z,98604.10
2018-07-22T19:14:28.667Z,98604.85
2018-07-22T19:16:56.772Z,98599.15
2018-07-22T19:19:25.004Z,98605.77
2018-07-22T19:21:53.118Z,98610.39
2018-07-22T19:24:21.220Z,98609.36
2018-07-22T19:26:49.303Z,98615.95
2018-07-22T19:29:17.658Z,98617.40
2018-07-22T19:31:45.759Z,98612.66
2018-07-22T19:34:13.875Z,98620.45
2018-07-22T19:36:41.979Z,98615.15
2018-07-22T19:39:10.683Z,98619.39
2018-07-22T19:41:38.978Z,98626.18
2018-07-22T19:44:07.692Z,98629.84
2018-07-22T19:46:35.804Z,98637.43
2018-07-22T19:49:03.943Z,98630.95
2018-07-22T19:51:32.051Z,98633.59
2018-07-22T19:54:00.148Z,98638.45
2018-07-22T19:56:28.263Z,98640.99
2018-07-22T19:58:56.360Z,98638.67
2018-07-22T20:01:24.489Z,98635.15
2018-07-22T20:03:52.641Z,98638.47
2018-07-22T20:06:20.835Z,98631.13
2018-07-22T20:08:48.955Z,98631.75
2018-07-22T20:11:17.098Z,98633.65
2018-07-22T20:13:45.192Z,98641.40
2018-07-22T20:16:13.299Z,98637.00
2018-07-22T20:18:41.390Z,98639.05
2018-07-22T20:21:09.504Z,98642.61
2018-07-22T20:23:37.602Z,98640.28
2018-07-22T20:26:05.768Z,98651.48
2018-07-22T20:28:33.875Z,98642.35
2018-07-22T20:31:01.999Z,98648.17
2018-07-22T20:33:30.139Z,98645.91
2018-07-22T20:35:58.256Z,98642.13
2018-07-22T20:38:26.358Z,98640.23
2018-07-22T20:40:54.451Z,98647.97
2018-07-22T20:43:22.552Z,98646.59
2018-07-22T20:45:57.347Z,98653.38
2018-07-22T20:48:25.447Z,98657.21
2018-07-22T20:50:53.558Z,98656.55
2018-07-22T20:53:22.698Z,98655.42
2018-07-22T20:55:50.808Z,98654.79
2018-07-22T20:58:18.903Z,98658.87
2018-07-22T21:00:47.016Z,98657.95
2018-07-22T21:03:15.142Z,98664.13
2018-07-22T21:05:43.573Z,98660.50
2018-07-22T21:08:11.752Z,98655.45
2018-07-22T21:10:40.420Z,98657.70
2018-07-22T21:13:18.950Z,98655.98
2018-07-22T21:15:47.132Z,98659.13
2018-07-22T21:18:15.296Z,98659.47
2018-07-22T21:20:43.433Z,98665.13
2018-07-22T21:23:11.609Z,98664.81
2018-07-22T21:25:39.710Z,98665.48
2018-07-22T21:28:07.887Z,98674.20
2018-07-22T21:30:35.992Z,98671.53
2018-07-22T21:33:04.388Z,98681.61
2018-07-22T21:35:32.509Z,98684.54
2018-07-22T21:38:00.638Z,98689.23
2018-07-22T21:40:28.765Z,98682.11
2018-07-22T21:42:56.858Z,98682.16
2018-07-22T21:45:24.956Z,98676.97
2018-07-22T21:47:53.084Z,98681.14
2018-07-22T21:50:21.835Z,98690.55
2018-07-22T21:52:50.344Z,98685.53
2018-07-22T21:55:18.647Z,98686.56
2018-07-22T21:57:46.804Z,98689.07
